Latest Weather Observations for Canberra

IDN60801

Issued at 2:33 am EST Saturday 2 July 2016 (issued every 30 minutes, with the page automatically refreshed every 10 minutes)

About weather observations | Map of weather stations | Latest weather observations for NSW | Other Formats
Station Details ID: 070351 Name: CANBERRA AIRPORT Lat: -35.31 Lon: 149.20 Height: 577.05 m
Data from the previous 72 hours. | See also: Recent months at Canberra
Date/Time
EST
Temp
°C
App
Temp
°C
Dew
Point
°C
Rel
Hum
%
Delta-T
°C
Wind Press
QNH
hPa
Press
MSL
hPa
Rain since
9am
mm
Dir  Spd
km/h
Gust
km/h
Spd
kts
Gust
kts
02/02:30am -1.9 -5.5 -2.2 98 0.0 SE 7 9 4 5 1023.8 1025.0 0.0
02/02:00am -2.4 -5.9 -2.9 96 0.1 SE 6 7 3 4 1023.9 1025.2 0.0
02/01:30am -1.6 -3.8 -1.9 98 0.0 CALM 0 2 0 1 1023.6 1024.8 0.0
02/01:00am -1.9 -5.5 -2.3 97 0.1 S 7 9 4 5 1023.3 1024.6 0.0
02/12:30am -0.7 -3.6 -0.8 99 0.0 SE 4 7 2 4 1023.1 1024.4 0.0
02/12:00am -0.8 -3.0 -1.2 97 0.1 CALM 0 0 0 0 1023.1 1024.4 0.0
 
Date/Time
EST
Temp
°C
App
Temp
°C
Dew
Point
°C
Rel
Hum
%
Delta-T
°C
Wind Press
QNH
hPa
Press
MSL
hPa
Rain since
9am
mm
Dir  Spd
km/h
Gust
km/h
Spd
kts
Gust
kts
01/11:30pm -0.2 -2.3 -1.0 94 0.3 CALM 0 0 0 0 1023.0 1024.3 0.0
01/11:00pm -0.4 -2.6 -1.7 91 0.4 CALM 0 0 0 0 1022.9 1024.2 0.0
01/10:30pm 1.3 -0.7 0.1 92 0.5 CALM 0 0 0 0 1022.8 1024.1 0.0
01/10:00pm 1.1 -1.4 -0.8 87 0.7 N 2 7 1 4 1022.6 1023.9 0.0
01/09:30pm 3.3 -0.6 1.2 86 0.8 NE 11 13 6 7 1022.3 1023.5 0.0
01/09:00pm 3.2 -0.3 1.3 87 0.8 N 9 11 5 6 1022.2 1023.4 0.0
01/08:30pm 3.8 0.3 1.4 84 1.0 NNE 9 11 5 6 1022.1 1023.3 0.0
01/08:00pm 4.5 1.1 2.0 84 1.0 NNE 9 13 5 7 1021.9 1023.1 0.0
01/07:30pm 5.0 0.9 2.4 83 1.1 N 13 17 7 9 1021.5 1022.8 0.0
01/07:00pm 5.0 0.9 2.4 83 1.1 N 13 15 7 8 1021.1 1022.4 0.0
01/06:30pm 5.8 1.4 2.6 80 1.4 N 15 17 8 9 1020.8 1022.0 0.0
01/06:00pm 6.5 1.8 2.9 78 1.5 NNW 17 22 9 12 1020.2 1021.4 0.0
01/05:30pm 6.5 2.5 2.8 77 1.6 N 13 15 7 8 1019.4 1020.6 0.0
01/05:00pm 7.4 3.4 2.9 73 2.0 NNE 13 17 7 9 1019.0 1020.2 0.0
01/04:30pm 8.9 4.6 3.1 67 2.6 N 15 20 8 11 1018.5 1019.7 0.0
01/04:00pm 10.4 5.7 3.0 60 3.3 NNW 17 24 9 13 1018.4 1019.6 0.0
01/03:30pm 10.4 5.2 3.4 62 3.2 NNW 20 28 11 15 1017.8 1019.0 0.0
01/03:00pm 10.5 5.2 3.1 60 3.3 NNW 20 28 11 15 1017.3 1018.5 0.0
01/02:30pm 10.9 5.3 3.2 59 3.5 NNW 22 30 12 16 1017.0 1018.2 0.0
01/02:00pm 10.8 4.4 3.1 59 3.5 N 26 33 14 18 1016.7 1017.9 0.0
01/01:30pm 10.5 5.3 2.4 57 3.6 NNW 19 28 10 15 1016.7 1017.9 0.0
01/01:00pm 11.0 6.2 2.8 57 3.7 NW 17 26 9 14 1016.6 1017.8 0.0
01/12:30pm 10.1 5.2 1.7 56 3.6 NNW 17 24 9 13 1016.6 1017.8 0.0
01/12:00pm 9.7 4.8 2.3 60 3.2 NW 17 26 9 14 1016.7 1017.9 0.0
01/11:30am 9.4 4.0 2.5 62 3.0 NW 20 26 11 14 1016.9 1018.1 0.0
01/11:00am 8.9 4.5 2.5 64 2.8 WNW 15 19 8 10 1016.9 1018.1 0.0
01/10:30am 8.5 4.0 1.9 63 2.8 W 15 20 8 11 1016.8 1018.0 0.0
01/10:00am 7.6 2.9 2.9 72 2.0 NW 17 22 9 12 1016.4 1017.5 0.0
01/09:30am 6.5 2.5 2.6 76 1.7 NW 13 19 7 10 1015.8 1016.7 0.0
01/09:00am 5.7 0.9 2.4 79 1.4 NNW 17 20 9 11 1015.5 1016.4 1.0
01/08:30am 4.7 0.3 2.6 86 0.9 N 15 19 8 10 1015.2 1016.1 1.0
01/08:00am 3.7 -0.4 2.1 89 0.7 N 13 19 7 10 1014.5 1015.3 1.0
01/07:30am 3.5 -1.4 2.0 90 0.6 NNW 17 26 9 14 1014.1 1015.0 1.0
01/07:00am 3.3 -3.7 2.1 92 0.5 NNW 28 32 15 17 1013.7 1014.6 1.0
01/06:30am 3.0 -2.3 2.0 93 0.4 NNW 19 22 10 12 1013.6 1014.5 1.0
01/06:00am 3.6 -1.2 2.4 92 0.5 NNW 17 20 9 11 1013.7 1014.6 1.0
01/05:30am 3.4 -1.9 2.1 91 0.5 NW 19 26 10 14 1013.4 1014.3 1.0
01/05:00am 3.3 -3.0 1.8 90 0.6 NW 24 30 13 16 1013.0 1013.8 1.0
01/04:30am 2.8 -2.2 1.6 92 0.5 NW 17 24 9 13 1012.8 1013.6 1.0
01/04:00am 3.3 -2.9 2.1 92 0.5 NNW 24 33 13 18 1012.5 1013.3 1.0
01/03:38am 3.5 -0.7 1.9 89 0.7 N 13 20 7 11 1012.8 1013.6 1.0
01/03:30am 3.4 -1.6 1.6 88 0.7 N 17 24 9 13 1012.5 1013.3 1.0
01/03:00am 3.2 -3.1 1.3 87 0.8 NW 24 33 13 18 1012.3 1013.2 1.0
01/02:30am 2.9 -4.2 1.3 89 0.6 NW 28 33 15 18 1012.1 1013.0 1.0
01/02:00am 3.2 -4.6 1.7 90 0.6 NW 32 37 17 20 1011.8 1012.7 1.0
01/01:30am 4.3 -3.1 2.0 85 0.9 NW 30 35 16 19 1011.8 1012.7 1.0
01/01:01am 4.9 -2.0 2.3 83 1.1 NW 28 33 15 18 1011.4 1012.2 1.0
01/01:00am 4.9 -1.7 2.3 83 1.1 NW 26 33 14 18 1011.6 1012.4 1.0
01/12:39am 5.2 -0.9 2.9 85 1.0 WNW 24 37 13 20 1012.1 1013.0 0.8
01/12:30am 5.6 -1.3 2.8 82 1.2 WNW 28 39 15 21 1012.7 1013.5 0.6
01/12:08am 6.2 -1.5 3.4 82 1.2 WNW 33 48 18 26 1012.2 1013.1 0.4
01/12:00am 6.4 -2.2 4.6 88 0.8 NW 39 54 21 29 1011.9 1012.8 0.4
 
Date/Time
EST
Temp
°C
App
Temp
°C
Dew
Point
°C
Rel
Hum
%
Delta-T
°C
Wind Press
QNH
hPa
Press
MSL
hPa
Rain since
9am
mm
Dir  Spd
km/h
Gust
km/h
Spd
kts
Gust
kts
30/11:39pm 6.7 -1.8 5.2 90 0.7 NNW 39 57 21 31 1011.3 1012.1 0.2
30/11:30pm 6.8 -2.1 5.0 88 0.8 NNW 41 52 22 28 1011.2 1012.0 0.2
30/11:17pm 6.6 -1.5 5.1 90 0.7 NNW 37 57 20 31 1011.3 1012.1 0.2
30/11:00pm 6.8 -0.4 5.0 88 0.8 NNW 32 44 17 24 1011.2 1012.0 0.0
30/10:43pm 6.9 0.0 4.6 85 1.0 NNW 30 50 16 27 1011.7 1012.5 0.0
30/10:30pm 7.1 -0.8 4.4 83 1.2 NNW 35 48 19 26 1011.8 1012.7 0.0
30/10:21pm 7.2 0.3 4.5 83 1.2 NNW 30 48 16 26 1011.9 1012.8 0.0
30/10:00pm 6.8 0.7 4.6 86 1.0 NNW 26 37 14 20 1012.1 1013.0 0.0
30/09:30pm 6.6 0.8 4.4 86 1.0 NNW 24 41 13 22 1012.7 1013.5 0.0
30/09:00pm 6.4 -0.2 4.2 86 1.0 NNW 28 37 15 20 1012.6 1013.4 0.0
30/08:30pm 6.5 -1.5 4.0 84 1.1 NW 35 43 19 23 1012.8 1013.6 0.0
30/08:00pm 6.3 -1.1 4.1 86 1.0 NNW 32 41 17 22 1013.0 1013.8 0.0
30/07:30pm 6.3 -0.8 3.8 84 1.1 NNW 30 39 16 21 1013.3 1014.2 0.0
30/07:00pm 6.2 -1.3 3.7 84 1.1 NW 32 37 17 20 1013.6 1014.5 0.0
30/06:30pm 6.1 -1.6 3.3 82 1.2 NW 33 39 18 21 1013.5 1014.4 0.0
30/06:00pm 5.8 -0.6 3.0 82 1.2 NNW 26 37 14 20 1013.4 1014.3 0.0
30/05:30pm 6.0 0.9 3.2 82 1.2 NNW 19 26 10 14 1013.4 1014.3 0.0
30/05:00pm 6.4 0.0 3.2 80 1.4 NW 26 35 14 19 1013.3 1014.2 0.0
30/04:30pm 6.4 -1.4 2.9 78 1.5 NW 33 39 18 21 1013.2 1014.1 0.0
30/04:00pm 6.9 -0.7 2.8 75 1.8 NW 32 41 17 22 1013.7 1014.6 0.0
30/03:30pm 7.2 -0.4 2.7 73 1.9 NW 32 41 17 22 1014.1 1015.0 0.0
30/03:00pm 6.9 -0.9 3.0 76 1.7 NNW 33 39 18 21 1014.5 1015.3 0.0
30/02:30pm 6.7 -0.2 2.8 76 1.7 NNW 28 39 15 21 1015.0 1015.9 0.0
30/02:00pm 6.7 -1.1 2.6 75 1.8 NNW 33 41 18 22 1015.4 1016.3 0.0
30/01:30pm 7.4 -0.4 2.9 73 2.0 NW 33 43 18 23 1015.7 1016.6 0.0
30/01:00pm 7.0 -0.3 2.7 74 1.9 NW 30 39 16 21 1016.3 1017.2 0.0
30/12:30pm 7.1 -0.4 3.5 78 1.6 NNW 32 35 17 19 1016.9 1017.8 0.0
30/12:00pm 6.6 -0.2 3.0 78 1.6 NNW 28 39 15 21 1018.0 1018.9 0.0
30/11:30am 6.7 -0.5 3.1 78 1.6 NNW 30 39 16 21 1018.6 1019.5 0.0
30/11:00am 6.1 -0.6 3.4 83 1.2 NNW 28 37 15 20 1019.3 1020.3 0.0
30/10:30am 5.7 -0.3 3.4 85 1.0 NNW 24 35 13 19 1020.3 1021.2 0.0
30/10:00am 3.2 1.7 3.1 99 0.0 CALM 0 6 0 3 1020.7 1021.7 0.0
30/09:30am 0.6 -1.3 0.5 99 0.0 CALM 0 0 0 0 1020.7 1021.7 0.0
30/09:15am 0.0 -2.0 -0.1 99 0.0 CALM 0 0 0 0 1020.8 1021.8 0.0
30/09:00am -0.4 -3.6 -0.5 99 0.0 SSE 6 7 3 4 1020.8 1021.8 0.0
30/08:30am -1.1 -4.4 -1.2 99 0.0 SE 6 7 3 4 1020.8 1021.8 0.0
30/08:23am -1.2 -4.7 -1.3 99 0.0 E 7 7 4 4 1020.8 1021.8 0.0
30/08:11am -1.5 -4.8 -1.6 99 0.0 NNE 6 7 3 4 1020.9 1021.9 0.0
30/08:08am -1.5 -4.8 -1.6 99 0.0 NNE 6 7 3 4 1020.9 1021.9 0.0
30/08:00am -1.8 -5.2 -1.9 99 0.0 N 6 7 3 4 1021.0 1022.0 0.0
30/07:47am -2.0 -5.4 -2.1 99 -0.1 N 6 7 3 4 1021.0 1022.0 0.0
30/07:30am -2.8 -5.2 -2.9 99 -0.1 CALM 0 0 0 0 1020.8 1021.8 0.0
30/07:14am -2.8 -5.2 -2.9 99 -0.1 CALM 0 0 0 0 1020.6 1021.6 0.0
30/07:00am -3.1 -5.5 -3.2 99 -0.1 CALM 0 4 0 2 1020.6 1021.6 0.0
30/06:30am -2.6 -4.9 -2.7 99 -0.1 CALM 0 0 0 0 1020.5 1021.4 0.0
30/06:00am -2.9 -5.3 -3.0 99 -0.1 CALM 0 0 0 0 1020.6 1021.6 0.0
30/05:30am -3.1 -5.5 -3.2 99 -0.1 CALM 0 0 0 0 1020.5 1021.4 0.0
30/05:00am -3.2 -5.6 -3.3 99 -0.1 CALM 0 0 0 0 1020.6 1021.6 0.0
30/04:30am -3.1 -5.5 -3.2 99 -0.1 CALM 0 4 0 2 1020.7 1021.7 0.0
30/04:00am -2.9 -5.3 -3.0 99 -0.1 CALM 0 - 0 - - 1022.0 -
30/03:38am - - - - - ENE 6 6 3 3 - - -
30/03:31am - - - - - ENE 6 7 3 4 - - -
30/03:30am - - - - - ENE 6 7 3 4 - - -
30/03:22am - - - - - NE 6 7 3 4 - - -
30/03:00am -3.4 -7.2 -3.5 99 -0.1 NNW 7 7 4 4 - 1022.7 0.0
30/02:56am - - - - - NNW 7 7 4 4 - - -
30/02:54am - - - - - NNW 6 7 3 4 - - -
30/02:51am - - - - - NNW 4 7 2 4 - - -
30/02:50am - - - - - N 2 7 1 4 - - -
30/02:46am - - - - - CALM 0 - 0 - - - -
30/02:44am - - - - - CALM 0 - 0 - - - -
30/02:30am - - - - - CALM 0 - 0 - - - -
30/02:27am - - - - - CALM 0 - 0 - - - -
30/02:14am - - - - - CALM 0 - 0 - - - -
30/02:00am -2.3 -4.6 -2.4 99 -0.1 CALM 0 - 0 - - 1023.4 -
30/01:59am - - - - - CALM 0 - 0 - - - -
30/01:54am - - - - - CALM 0 - 0 - - - -
30/01:39am - - - - - CALM 0 - 0 - - - -
30/01:38am - - - - - CALM 0 - 0 - - - -
30/01:34am - - - - - CALM 0 - 0 - - - -
30/01:30am - - - - - CALM 0 - 0 - - - -
30/01:16am - - - - - CALM 0 - 0 - - - -
30/01:10am - - - - - CALM 0 - 0 - - - -
30/01:00am -1.5 -3.7 -1.6 99 0.0 CALM 0 - 0 - - 1023.8 -
30/12:58am - - - - - CALM 0 - 0 - - - -
30/12:54am - - - - - CALM 0 - 0 - - - -
30/12:51am - - - - - CALM 0 - 0 - - - -
30/12:30am - - - - - CALM 0 - 0 - - - -
30/12:23am - - - - - CALM 0 - 0 - - - -
30/12:21am - - - - - CALM 0 - 0 - - - -
30/12:18am - - - - - CALM 0 - 0 - - - -
30/12:06am - - - - - CALM 0 - 0 - - - -
30/12:00am -1.3 -3.5 -1.7 97 0.1 CALM 0 - 0 - - 1024.6 -
 
Date/Time
EST
Temp
°C
App
Temp
°C
Dew
Point
°C
Rel
Hum
%
Delta-T
°C
Wind Press
QNH
hPa
Press
MSL
hPa
Rain since
9am
mm
Dir  Spd
km/h
Gust
km/h
Spd
kts
Gust
kts
29/11:45pm - - - - - CALM 0 - 0 - - - -
29/11:35pm - - - - - CALM 0 - 0 - - - -
29/11:30pm -1.1 -3.3 -1.5 97 0.1 CALM 0 0 0 0 1024.0 1025.0 0.0
29/11:00pm -0.3 -2.3 -0.4 99 0.0 CALM 0 0 0 0 1024.2 1025.2 0.0
29/10:57pm -0.4 -2.5 -0.5 99 0.0 CALM 0 0 0 0 1024.3 1025.3 0.0
29/10:42pm 0.0 -2.0 -0.1 99 0.0 CALM 0 0 0 0 1024.4 1025.4 0.0
29/10:31pm -0.1 -2.1 -0.2 99 0.0 CALM 0 0 0 0 1024.5 1025.5 0.0
29/10:30pm 0.1 -1.9 0.0 99 0.0 CALM 0 0 0 0 1024.5 1025.5 0.0
29/10:26pm 0.1 -1.9 0.0 99 0.0 CALM 0 0 0 0 1024.5 1025.5 0.0
29/10:00pm 0.1 -1.9 -0.2 98 0.1 CALM 0 0 0 0 1024.8 1025.8 0.0
29/09:30pm 0.4 -1.6 -0.2 96 0.2 CALM 0 0 0 0 1024.9 1026.0 0.0
29/09:00pm 1.7 -0.1 1.4 98 0.1 CALM 0 0 0 0 1025.2 1026.3 0.0
29/08:30pm 1.0 -0.9 0.4 96 0.2 CALM 0 0 0 0 1025.5 1026.5 0.0
29/08:00pm 1.6 -0.4 0.1 90 0.6 CALM 0 0 0 0 1025.5 1026.5 0.0
29/07:30pm 1.9 -0.8 0.4 90 0.6 NW 4 7 2 4 1025.6 1026.6 0.0
29/07:00pm 3.3 0.4 1.7 89 0.6 ENE 6 7 3 4 1025.4 1026.4 0.0
29/06:30pm 3.6 0.5 1.6 87 0.8 ENE 7 7 4 4 1025.4 1026.4 0.0
29/06:00pm 3.9 1.0 1.6 85 0.9 NNE 6 7 3 4 1025.5 1026.5 0.0
29/05:30pm 5.8 2.3 1.5 74 1.8 N 9 11 5 6 1025.2 1026.3 0.0
29/05:00pm 8.7 5.5 3.1 68 2.5 NW 9 11 5 6 1025.1 1026.2 0.0
29/04:30pm 10.5 7.1 3.8 63 3.1 NW 11 13 6 7 1025.2 1026.3 0.0
29/04:00pm 11.9 8.0 3.2 55 3.9 NW 13 15 7 8 1025.4 1026.4 0.0
29/03:30pm 12.3 8.9 1.6 48 4.7 NNW 9 11 5 6 1025.5 1026.5 0.0
29/03:00pm 12.2 8.7 1.5 48 4.7 NW 9 13 5 7 1025.5 1026.5 0.0
29/02:30pm 12.2 8.8 2.1 50 4.5 NNW 9 13 5 7 1025.6 1026.6 0.0
29/02:00pm 11.9 9.0 2.6 53 4.2 NNW 7 11 4 6 1025.7 1026.7 0.0
29/01:30pm 10.9 8.0 1.7 53 4.0 NNW 6 9 3 5 1026.0 1027.0 0.0
29/01:00pm 10.2 7.3 1.6 55 3.7 WNW 6 9 3 5 1026.3 1027.3 0.0
29/12:30pm 9.5 6.9 1.2 56 3.5 E 4 7 2 4 1026.9 1028.0 0.0
29/12:00pm 8.1 5.1 1.9 65 2.6 W 7 11 4 6 1027.7 1028.7 0.0
29/11:30am 6.9 3.5 2.0 71 2.1 W 9 11 5 6 1028.3 1029.4 0.0
29/11:00am 6.0 2.9 1.5 73 1.9 W 7 9 4 5 1028.6 1029.7 0.0
29/10:30am 4.4 1.4 2.1 85 1.0 W 7 9 4 5 1028.8 1029.9 0.0
29/10:00am 2.6 0.5 1.4 92 0.5 SE 2 7 1 4 1029.2 1030.2 0.0
29/09:42am 2.1 -0.5 1.2 94 0.4 N 4 7 2 4 1029.4 1030.5 0.0
29/09:30am 1.2 -2.0 0.6 96 0.2 NNW 7 9 4 5 1029.4 1030.5 0.0
29/09:25am 1.3 -1.3 1.2 99 0.0 N 4 9 2 5 1029.5 1030.6 0.0
29/09:07am -0.2 -2.2 -0.3 99 0.0 CALM 0 0 0 0 1029.4 1030.5 0.0
29/09:00am -1.1 -3.3 -1.2 99 0.0 CALM 0 0 0 0 1029.4 1030.5 0.2
29/08:56am -1.2 -3.4 -1.3 99 0.0 CALM 0 0 0 0 1029.4 1030.5 0.2
29/08:52am -1.4 -3.6 -1.5 99 0.0 CALM 0 - 0 - 1029.3 1030.5 -
29/08:46am -1.7 -3.9 -1.8 99 0.0 CALM 0 0 0 0 1029.3 1030.3 0.0
29/08:30am -2.2 -4.5 -2.3 99 -0.1 CALM 0 0 0 0 1029.3 1030.3 0.0
29/08:00am -2.6 -4.9 -2.7 99 -0.1 CALM 0 0 0 0 1028.9 1030.0 0.0
29/07:30am -2.8 -5.2 -2.9 99 -0.1 CALM 0 0 0 0 1028.7 1029.8 0.0
29/07:17am -2.9 -5.7 -3.0 99 -0.1 ESE 2 4 1 2 1028.6 1029.7 0.0
29/07:00am -3.2 -6.8 -3.3 99 -0.1 ESE 6 9 3 5 1028.5 1029.6 0.0
29/06:30am -4.1 -6.7 -4.5 97 0.0 CALM 0 0 0 0 1028.4 1029.5 0.0
29/06:26am -3.0 -5.4 -3.3 98 0.0 CALM 0 0 0 0 1028.4 1029.5 0.0
29/06:00am -4.1 -6.7 -4.6 96 0.0 CALM 0 0 0 0 1028.2 1029.3 0.0
29/05:30am -3.5 -7.1 -3.9 97 0.0 NNW 6 7 3 4 1027.9 1029.0 0.0
29/05:00am -3.1 -6.3 -3.2 99 -0.1 ESE 4 7 2 4 1027.6 1028.6 0.0
29/04:56am -3.1 -6.3 -3.2 99 -0.1 SE 4 7 2 4 1027.6 1028.6 0.0
29/04:30am -3.9 -7.2 -4.2 98 -0.1 SSW 4 6 2 3 1027.4 1028.4 0.0
29/04:19am -3.6 -7.4 -3.9 98 -0.1 SSE 7 9 4 5 1027.4 1028.4 0.0
29/04:10am -4.0 -7.7 -4.4 97 0.0 ESE 6 9 3 5 1027.4 1028.4 0.0
29/04:06am -3.8 -7.5 -4.2 97 0.0 ENE 6 7 3 4 1027.4 1028.4 0.0
29/04:00am -3.4 -7.0 -3.8 97 0.0 NNE 6 7 3 4 1027.4 1028.4 0.0
29/03:30am -3.0 -6.7 -3.3 98 0.0 N 7 7 4 4 1027.5 1028.5 0.0
29/03:29am -2.9 -6.6 -3.2 98 0.0 N 7 7 4 4 1027.5 1028.5 0.0
29/03:15am -2.8 -5.2 -2.9 99 -0.1 CALM 0 0 0 0 1027.6 1028.6 0.0
29/03:11am -2.4 -4.7 -2.5 99 -0.1 CALM 0 0 0 0 1027.6 1028.6 0.0
29/03:05am -2.6 -4.9 -2.7 99 -0.1 CALM 0 0 0 0 1027.6 1028.6 0.0
29/03:00am -2.7 -5.1 -3.0 98 0.0 CALM 0 0 0 0 1027.6 1028.6 0.0

Other Formats:

Comma delimited format used in spreadsheet applications
http://www.bom.gov.au/fwo/IDN60801/IDN60801.94926.axf

JavaScript Object Notation format (JSON) in row-major order
http://www.bom.gov.au/fwo/IDN60801/IDN60801.94926.json